Royal Prince — WCX8037 — position and weather

sailwx.info

Track history (hours):
 
Tides and Currents Weather Stations Pressure Air Temp Water Temp Dewpoint Dewpoint Depression Visibility Wind Speed Wind Dir Waves Ship Positions

Royal Prince

Owner: Golden Gate Scenic Steamship Corp, SAN FRANCISCO, CA. More information available from US FCC via Universal Licensing System and Coast Guard Vessel Documentation Center.

Last reported at 2016-Dec-05 20:33 UTC. Time now 2016-Dec-05 20:36 UTC.
Position N 37°49' W 122°25'.

; draft 3 m.

Type: Passenger vessel. MMSI: 366975760.

Date/timePositionNaut miles runAvg speedWind from/ knotsBaromVisibWave heightAir tempDewpointWater temp
2016-Dec-05 20:33N 37°49' W 122°25'2 2.5
2016-Dec-05 19:33N 37°49' W 122°28'2 2.5
2016-Dec-05 18:33N 37°49' W 122°25'0 0.0
2016-Dec-05 17:34N 37°49' W 122°25'0 0.0
2016-Dec-05 03:34N 37°49' W 122°25'2 1.8
2016-Dec-05 02:34N 37°49' W 122°23'2 1.8
2016-Dec-05 01:33N 37°49' W 122°25'1 0.7
2016-Dec-05 00:34N 37°49' W 122°24'1 0.7
2016-Dec-04 23:34N 37°49' W 122°25'0 0.0
2016-Dec-04 22:34N 37°49' W 122°25'3 3.1
2016-Dec-04 21:33N 37°49' W 122°29'3 3.1
2016-Dec-04 20:33N 37°49' W 122°25'2 2.4
2016-Dec-04 19:33N 37°49' W 122°28'1 1.0
2016-Dec-04 18:34N 37°49' W 122°27'2 1.8
2016-Dec-04 17:33N 37°49' W 122°25'0 0.0
2016-Dec-04 03:33N 37°49' W 122°25'2 2.0
2016-Dec-04 02:34N 37°49' W 122°22'2 2.0
2016-Dec-04 01:34N 37°49' W 122°25'1 0.5
2016-Dec-04 00:34N 37°49' W 122°25'1 0.6
2016-Dec-03 23:33N 37°49' W 122°25'0 0.1
2016-Dec-03 22:33N 37°49' W 122°25'3 3.1
2016-Dec-03 21:33N 37°49' W 122°29'3 3.1
2016-Dec-03 20:33N 37°49' W 122°25'2 2.1
2016-Dec-03 19:33N 37°49' W 122°28'1 0.5
2016-Dec-03 18:33N 37°49' W 122°27'2 0.1
2016-Dec-03 03:32N 37°49' W 122°25'2 1.7
2016-Dec-03 02:33N 37°49' W 122°23'2 1.7
2016-Dec-03 01:33N 37°49' W 122°25'1 0.7
2016-Dec-03 00:33N 37°49' W 122°25'1 0.7
2016-Dec-02 23:33N 37°49' W 122°25'0 0.3
2016-Dec-02 22:33N 37°49' W 122°25'3 2.7
2016-Dec-02 21:33N 37°49' W 122°29'3 2.9
2016-Dec-02 20:33N 37°49' W 122°25'2 2.4
2016-Dec-02 19:33N 37°49' W 122°28'1 1.0
2016-Dec-02 18:33N 37°49' W 122°27'2 0.1
2016-Dec-02 01:33N 37°49' W 122°25'1 0.9
2016-Dec-02 00:33N 37°49' W 122°25'1 0.9
2016-Dec-01 23:33N 37°49' W 122°25'0 0.1
2016-Dec-01 22:33N 37°49' W 122°25'3 2.9
2016-Dec-01 21:34N 37°49' W 122°29'3 3.0
2016-Dec-01 20:33N 37°49' W 122°25'2 2.3
2016-Dec-01 19:33N 37°49' W 122°28'1 0.9
2016-Dec-01 18:33N 37°50' W 122°27'2 0.1
2016-Dec-01 00:33N 37°49' W 122°25'1 0.6
2016-Nov-30 23:33N 37°49' W 122°25'0 0.0
2016-Nov-30 22:33N 37°49' W 122°25'0 0.2
2016-Nov-30 21:33N 37°49' W 122°25'0 0.2
2016-Nov-30 20:33N 37°49' W 122°25'2 2.4
2016-Nov-30 19:33N 37°49' W 122°28'1 0.7
2016-Nov-30 18:33N 37°49' W 122°27'2 0.1
2016-Nov-30 00:33N 37°49' W 122°25'1 0.7
2016-Nov-29 23:33N 37°49' W 122°25'0 0.2
2016-Nov-29 22:33N 37°49' W 122°25'3 2.8
2016-Nov-29 21:33N 37°49' W 122°29'3 3.0
2016-Nov-29 20:33N 37°49' W 122°25'2 2.4
2016-Nov-29 19:33N 37°49' W 122°28'1 0.9
2016-Nov-29 18:33N 37°50' W 122°27'2 2.0
2016-Nov-29 17:33N 37°49' W 122°25'0 0.0
2016-Nov-29 03:33N 37°49' W 122°25'2 2.2
2016-Nov-29 02:34N 37°48' W 122°22'2 2.3
2016-Nov-29 01:33N 37°49' W 122°25'1 0.6
2016-Nov-29 00:33N 37°49' W 122°25'1 0.7
2016-Nov-28 23:33N 37°49' W 122°25'0 0.1
2016-Nov-28 22:33N 37°49' W 122°25'3 3.0
2016-Nov-28 21:33N 37°49' W 122°29'3 3.1
2016-Nov-28 20:33N 37°49' W 122°25'2 1.8
2016-Nov-28 19:33N 37°49' W 122°27'1 0.7
2016-Nov-28 18:34N 37°50' W 122°27'2 1.9
2016-Nov-28 17:34N 37°49' W 122°25'0 0.0
2016-Nov-28 03:33N 37°49' W 122°25'2 2.3
2016-Nov-28 02:33N 37°48' W 122°22'2 2.3
2016-Nov-28 01:33N 37°49' W 122°25'1 0.7
2016-Nov-28 00:33N 37°49' W 122°25'1 0.7
2016-Nov-27 23:33N 37°49' W 122°25'0 0.1
2016-Nov-27 22:33N 37°49' W 122°25'3 3.0
2016-Nov-27 21:33N 37°49' W 122°29'3 3.1
2016-Nov-27 20:33N 37°49' W 122°25'2 2.4
2016-Nov-27 19:33N 37°49' W 122°28'1 1.1
2016-Nov-27 18:33N 37°50' W 122°27'2 1.7
2016-Nov-27 17:33N 37°49' W 122°25'0 0.0
2016-Nov-27 03:33N 37°49' W 122°25'2 1.7
2016-Nov-27 02:33N 37°49' W 122°23'2 1.7
2016-Nov-27 01:33N 37°49' W 122°25'1 0.9
2016-Nov-27 00:33N 37°49' W 122°25'1 0.9
2016-Nov-26 23:33N 37°49' W 122°25'0 0.0
2016-Nov-26 22:33N 37°49' W 122°25'3 2.9
2016-Nov-26 21:33N 37°49' W 122°29'3 2.9
2016-Nov-26 20:33N 37°49' W 122°25'1 1.4
2016-Nov-26 19:33N 37°49' W 122°27'1 0.8
2016-Nov-26 18:33N 37°49' W 122°27'2 2.0
2016-Nov-26 17:33N 37°49' W 122°25'0 0.0
2016-Nov-26 03:34N 37°49' W 122°25'2 1.8
2016-Nov-26 02:34N 37°49' W 122°23'2 1.8
2016-Nov-26 01:34N 37°49' W 122°25'  
Track history (hours):
 
Tides and Currents Weather Stations Pressure Air Temp Water Temp Dewpoint Dewpoint Depression Visibility Wind Speed Wind Dir Waves Ship Positions

Royal Prince

Owner: Golden Gate Scenic Steamship Corp, SAN FRANCISCO, CA. More information available from US FCC via Universal Licensing System and Coast Guard Vessel Documentation Center.

Last reported at 2016-Dec-05 20:33 UTC. Time now 2016-Dec-05 20:36 UTC.
Position N 37°49' W 122°25'.

; draft 3 m.

Type: Passenger vessel. MMSI: 366975760.

Date/timePositionNaut miles runAvg speedWind from/ knotsBaromVisibWave heightAir tempDewpointWater temp
2016-Dec-05 20:33N 37°49' W 122°25'2 2.5
2016-Dec-05 19:33N 37°49' W 122°28'2 2.5
2016-Dec-05 18:33N 37°49' W 122°25'0 0.0
2016-Dec-05 17:34N 37°49' W 122°25'0 0.0
2016-Dec-05 03:34N 37°49' W 122°25'2 1.8
2016-Dec-05 02:34N 37°49' W 122°23'2 1.8
2016-Dec-05 01:33N 37°49' W 122°25'1 0.7
2016-Dec-05 00:34N 37°49' W 122°24'1 0.7
2016-Dec-04 23:34N 37°49' W 122°25'0 0.0
2016-Dec-04 22:34N 37°49' W 122°25'3 3.1
2016-Dec-04 21:33N 37°49' W 122°29'3 3.1
2016-Dec-04 20:33N 37°49' W 122°25'2 2.4
2016-Dec-04 19:33N 37°49' W 122°28'1 1.0
2016-Dec-04 18:34N 37°49' W 122°27'2 1.8
2016-Dec-04 17:33N 37°49' W 122°25'0 0.0
2016-Dec-04 03:33N 37°49' W 122°25'2 2.0
2016-Dec-04 02:34N 37°49' W 122°22'2 2.0
2016-Dec-04 01:34N 37°49' W 122°25'1 0.5
2016-Dec-04 00:34N 37°49' W 122°25'1 0.6
2016-Dec-03 23:33N 37°49' W 122°25'0 0.1
2016-Dec-03 22:33N 37°49' W 122°25'3 3.1
2016-Dec-03 21:33N 37°49' W 122°29'3 3.1
2016-Dec-03 20:33N 37°49' W 122°25'2 2.1
2016-Dec-03 19:33N 37°49' W 122°28'1 0.5
2016-Dec-03 18:33N 37°49' W 122°27'2 0.1
2016-Dec-03 03:32N 37°49' W 122°25'2 1.7
2016-Dec-03 02:33N 37°49' W 122°23'2 1.7
2016-Dec-03 01:33N 37°49' W 122°25'1 0.7
2016-Dec-03 00:33N 37°49' W 122°25'1 0.7
2016-Dec-02 23:33N 37°49' W 122°25'0 0.3
2016-Dec-02 22:33N 37°49' W 122°25'3 2.7
2016-Dec-02 21:33N 37°49' W 122°29'3 2.9
2016-Dec-02 20:33N 37°49' W 122°25'2 2.4
2016-Dec-02 19:33N 37°49' W 122°28'1 1.0
2016-Dec-02 18:33N 37°49' W 122°27'2 0.1
2016-Dec-02 01:33N 37°49' W 122°25'1 0.9
2016-Dec-02 00:33N 37°49' W 122°25'1 0.9
2016-Dec-01 23:33N 37°49' W 122°25'0 0.1
2016-Dec-01 22:33N 37°49' W 122°25'3 2.9
2016-Dec-01 21:34N 37°49' W 122°29'3 3.0
2016-Dec-01 20:33N 37°49' W 122°25'2 2.3
2016-Dec-01 19:33N 37°49' W 122°28'1 0.9
2016-Dec-01 18:33N 37°50' W 122°27'2 0.1
2016-Dec-01 00:33N 37°49' W 122°25'1 0.6
2016-Nov-30 23:33N 37°49' W 122°25'0 0.0
2016-Nov-30 22:33N 37°49' W 122°25'0 0.2
2016-Nov-30 21:33N 37°49' W 122°25'0 0.2
2016-Nov-30 20:33N 37°49' W 122°25'2 2.4
2016-Nov-30 19:33N 37°49' W 122°28'1 0.7
2016-Nov-30 18:33N 37°49' W 122°27'2 0.1
2016-Nov-30 00:33N 37°49' W 122°25'1 0.7
2016-Nov-29 23:33N 37°49' W 122°25'0 0.2
2016-Nov-29 22:33N 37°49' W 122°25'3 2.8
2016-Nov-29 21:33N 37°49' W 122°29'3 3.0
2016-Nov-29 20:33N 37°49' W 122°25'2 2.4
2016-Nov-29 19:33N 37°49' W 122°28'1 0.9
2016-Nov-29 18:33N 37°50' W 122°27'2 2.0
2016-Nov-29 17:33N 37°49' W 122°25'0 0.0
2016-Nov-29 03:33N 37°49' W 122°25'2 2.2
2016-Nov-29 02:34N 37°48' W 122°22'2 2.3
2016-Nov-29 01:33N 37°49' W 122°25'1 0.6
2016-Nov-29 00:33N 37°49' W 122°25'1 0.7
2016-Nov-28 23:33N 37°49' W 122°25'0 0.1
2016-Nov-28 22:33N 37°49' W 122°25'3 3.0
2016-Nov-28 21:33N 37°49' W 122°29'3 3.1
2016-Nov-28 20:33N 37°49' W 122°25'2 1.8
2016-Nov-28 19:33N 37°49' W 122°27'1 0.7
2016-Nov-28 18:34N 37°50' W 122°27'2 1.9
2016-Nov-28 17:34N 37°49' W 122°25'0 0.0
2016-Nov-28 03:33N 37°49' W 122°25'2 2.3
2016-Nov-28 02:33N 37°48' W 122°22'2 2.3
2016-Nov-28 01:33N 37°49' W 122°25'1 0.7
2016-Nov-28 00:33N 37°49' W 122°25'1 0.7
2016-Nov-27 23:33N 37°49' W 122°25'0 0.1
2016-Nov-27 22:33N 37°49' W 122°25'3 3.0
2016-Nov-27 21:33N 37°49' W 122°29'3 3.1
2016-Nov-27 20:33N 37°49' W 122°25'2 2.4
2016-Nov-27 19:33N 37°49' W 122°28'1 1.1
2016-Nov-27 18:33N 37°50' W 122°27'2 1.7
2016-Nov-27 17:33N 37°49' W 122°25'0 0.0
2016-Nov-27 03:33N 37°49' W 122°25'2 1.7
2016-Nov-27 02:33N 37°49' W 122°23'2 1.7
2016-Nov-27 01:33N 37°49' W 122°25'1 0.9
2016-Nov-27 00:33N 37°49' W 122°25'1 0.9
2016-Nov-26 23:33N 37°49' W 122°25'0 0.0
2016-Nov-26 22:33N 37°49' W 122°25'3 2.9
2016-Nov-26 21:33N 37°49' W 122°29'3 2.9
2016-Nov-26 20:33N 37°49' W 122°25'1 1.4
2016-Nov-26 19:33N 37°49' W 122°27'1 0.8
2016-Nov-26 18:33N 37°49' W 122°27'2 2.0
2016-Nov-26 17:33N 37°49' W 122°25'0 0.0
2016-Nov-26 03:34N 37°49' W 122°25'2 1.8
2016-Nov-26 02:34N 37°49' W 122°23'2 1.8
2016-Nov-26 01:34N 37°49' W 122°25'  

Dump ship's entire track history